sensor_id;sensor_type;location;lat;lon;timestamp;P1;durP1;ratioP1;P2;durP2;ratioP2
17790;SDS011;9019;48.132;-1.210;2023-03-14T00:00:03;7.50;;;1.40;;
17790;SDS011;9019;48.132;-1.210;2023-03-14T00:02:31;6.10;;;1.20;;
17790;SDS011;9019;48.132;-1.210;2023-03-14T00:04:58;6.57;;;1.07;;
17790;SDS011;9019;48.132;-1.210;2023-03-14T00:07:27;7.33;;;1.10;;
17790;SDS011;9019;48.132;-1.210;2023-03-14T00:09:58;4.23;;;0.90;;
17790;SDS011;9019;48.132;-1.210;2023-03-14T00:12:26;6.87;;;1.07;;
17790;SDS011;9019;48.132;-1.210;2023-03-14T00:14:53;5.43;;;1.13;;
17790;SDS011;9019;48.132;-1.210;2023-03-14T00:17:22;4.20;;;1.10;;
17790;SDS011;9019;48.132;-1.210;2023-03-14T00:19:49;4.70;;;1.10;;
17790;SDS011;9019;48.132;-1.210;2023-03-14T00:22:22;5.33;;;1.00;;
17790;SDS011;9019;48.132;-1.210;2023-03-14T00:24:50;3.63;;;1.00;;
17790;SDS011;9019;48.132;-1.210;2023-03-14T00:27:17;3.90;;;0.80;;
17790;SDS011;9019;48.132;-1.210;2023-03-14T00:29:44;8.43;;;1.23;;
17790;SDS011;9019;48.132;-1.210;2023-03-14T00:32:11;4.43;;;1.10;;
17790;SDS011;9019;48.132;-1.210;2023-03-14T00:34:40;5.63;;;1.30;;
17790;SDS011;9019;48.132;-1.210;2023-03-14T00:37:07;4.03;;;1.10;;
17790;SDS011;9019;48.132;-1.210;2023-03-14T00:39:34;5.70;;;1.30;;
17790;SDS011;9019;48.132;-1.210;2023-03-14T00:42:01;5.13;;;1.40;;
17790;SDS011;9019;48.132;-1.210;2023-03-14T00:44:28;4.40;;;1.27;;
17790;SDS011;9019;48.132;-1.210;2023-03-14T00:46:56;4.33;;;1.30;;
17790;SDS011;9019;48.132;-1.210;2023-03-14T00:49:24;5.83;;;1.37;;
17790;SDS011;9019;48.132;-1.210;2023-03-14T00:51:52;4.97;;;1.30;;
17790;SDS011;9019;48.132;-1.210;2023-03-14T00:54:19;7.90;;;1.37;;
17790;SDS011;9019;48.132;-1.210;2023-03-14T00:56:47;6.30;;;1.27;;
17790;SDS011;9019;48.132;-1.210;2023-03-14T00:59:15;3.77;;;1.10;;
17790;SDS011;9019;48.132;-1.210;2023-03-14T01:01:42;4.00;;;1.00;;
17790;SDS011;9019;48.132;-1.210;2023-03-14T01:04:09;6.50;;;1.27;;
17790;SDS011;9019;48.132;-1.210;2023-03-14T01:06:37;5.77;;;1.33;;
17790;SDS011;9019;48.132;-1.210;2023-03-14T01:09:05;7.27;;;1.27;;
17790;SDS011;9019;48.132;-1.210;2023-03-14T01:11:33;6.53;;;1.10;;
17790;SDS011;9019;48.132;-1.210;2023-03-14T01:14:01;3.17;;;0.80;;
17790;SDS011;9019;48.132;-1.210;2023-03-14T01:16:29;7.37;;;1.13;;
17790;SDS011;9019;48.132;-1.210;2023-03-14T01:18:56;2.53;;;0.70;;
17790;SDS011;9019;48.132;-1.210;2023-03-14T01:21:24;5.23;;;0.77;;
17790;SDS011;9019;48.132;-1.210;2023-03-14T01:23:52;3.23;;;0.90;;
17790;SDS011;9019;48.132;-1.210;2023-03-14T01:26:22;1.90;;;0.50;;
17790;SDS011;9019;48.132;-1.210;2023-03-14T01:28:50;0.80;;;0.20;;
17790;SDS011;9019;48.132;-1.210;2023-03-14T01:31:17;1.23;;;0.20;;
17790;SDS011;9019;48.132;-1.210;2023-03-14T01:33:45;1.03;;;0.53;;
17790;SDS011;9019;48.132;-1.210;2023-03-14T01:36:12;0.67;;;0.27;;
17790;SDS011;9019;48.132;-1.210;2023-03-14T01:38:40;1.30;;;0.20;;
17790;SDS011;9019;48.132;-1.210;2023-03-14T01:41:08;1.63;;;0.33;;
17790;SDS011;9019;48.132;-1.210;2023-03-14T01:43:39;0.53;;;0.13;;
17790;SDS011;9019;48.132;-1.210;2023-03-14T01:46:24;1.03;;;0.30;;
17790;SDS011;9019;48.132;-1.210;2023-03-14T01:48:53;6.87;;;0.70;;
17790;SDS011;9019;48.132;-1.210;2023-03-14T01:51:24;2.50;;;0.70;;
17790;SDS011;9019;48.132;-1.210;2023-03-14T01:53:52;3.67;;;0.60;;
17790;SDS011;9019;48.132;-1.210;2023-03-14T01:56:21;7.77;;;1.47;;
17790;SDS011;9019;48.132;-1.210;2023-03-14T01:58:50;7.67;;;1.33;;
17790;SDS011;9019;48.132;-1.210;2023-03-14T02:01:20;8.83;;;1.70;;
17790;SDS011;9019;48.132;-1.210;2023-03-14T02:03:49;12.23;;;1.97;;
17790;SDS011;9019;48.132;-1.210;2023-03-14T02:06:17;13.97;;;1.83;;
17790;SDS011;9019;48.132;-1.210;2023-03-14T02:08:46;10.63;;;1.73;;
17790;SDS011;9019;48.132;-1.210;2023-03-14T02:11:14;14.30;;;2.17;;
17790;SDS011;9019;48.132;-1.210;2023-03-14T02:13:42;11.30;;;2.30;;
17790;SDS011;9019;48.132;-1.210;2023-03-14T02:16:10;9.13;;;1.70;;
17790;SDS011;9019;48.132;-1.210;2023-03-14T02:18:37;16.87;;;2.37;;
17790;SDS011;9019;48.132;-1.210;2023-03-14T02:21:06;12.97;;;2.50;;
17790;SDS011;9019;48.132;-1.210;2023-03-14T02:23:36;9.50;;;1.80;;
17790;SDS011;9019;48.132;-1.210;2023-03-14T02:26:06;14.77;;;2.30;;
17790;SDS011;9019;48.132;-1.210;2023-03-14T02:28:36;11.77;;;2.30;;
17790;SDS011;9019;48.132;-1.210;2023-03-14T02:31:04;15.03;;;2.60;;
17790;SDS011;9019;48.132;-1.210;2023-03-14T02:33:33;12.77;;;2.73;;
17790;SDS011;9019;48.132;-1.210;2023-03-14T02:36:02;13.47;;;2.70;;
17790;SDS011;9019;48.132;-1.210;2023-03-14T02:38:31;13.67;;;2.60;;
17790;SDS011;9019;48.132;-1.210;2023-03-14T02:41:00;13.37;;;2.23;;
17790;SDS011;9019;48.132;-1.210;2023-03-14T02:43:27;14.87;;;2.27;;
17790;SDS011;9019;48.132;-1.210;2023-03-14T02:45:56;12.00;;;2.07;;
17790;SDS011;9019;48.132;-1.210;2023-03-14T02:48:24;15.77;;;2.17;;
17790;SDS011;9019;48.132;-1.210;2023-03-14T02:50:53;17.73;;;2.40;;
17790;SDS011;9019;48.132;-1.210;2023-03-14T02:53:21;13.17;;;2.43;;
17790;SDS011;9019;48.132;-1.210;2023-03-14T02:55:50;14.43;;;2.43;;
17790;SDS011;9019;48.132;-1.210;2023-03-14T02:58:18;11.23;;;2.17;;
17790;SDS011;9019;48.132;-1.210;2023-03-14T03:00:45;11.40;;;2.70;;
17790;SDS011;9019;48.132;-1.210;2023-03-14T03:03:14;13.33;;;1.70;;
17790;SDS011;9019;48.132;-1.210;2023-03-14T03:05:41;10.93;;;1.93;;
17790;SDS011;9019;48.132;-1.210;2023-03-14T03:08:09;9.03;;;1.87;;
17790;SDS011;9019;48.132;-1.210;2023-03-14T03:10:37;11.53;;;1.67;;
17790;SDS011;9019;48.132;-1.210;2023-03-14T03:13:04;8.17;;;2.17;;
17790;SDS011;9019;48.132;-1.210;2023-03-14T03:15:31;10.80;;;2.30;;
17790;SDS011;9019;48.132;-1.210;2023-03-14T03:17:58;8.53;;;1.70;;
17790;SDS011;9019;48.132;-1.210;2023-03-14T03:20:27;11.37;;;2.00;;
17790;SDS011;9019;48.132;-1.210;2023-03-14T03:22:54;10.97;;;1.70;;
17790;SDS011;9019;48.132;-1.210;2023-03-14T03:25:21;7.57;;;2.00;;
17790;SDS011;9019;48.132;-1.210;2023-03-14T03:27:48;9.73;;;2.10;;
17790;SDS011;9019;48.132;-1.210;2023-03-14T03:30:15;12.43;;;2.10;;
17790;SDS011;9019;48.132;-1.210;2023-03-14T03:32:43;9.73;;;1.90;;
17790;SDS011;9019;48.132;-1.210;2023-03-14T03:35:10;10.67;;;1.53;;
17790;SDS011;9019;48.132;-1.210;2023-03-14T03:37:39;12.27;;;2.10;;
17790;SDS011;9019;48.132;-1.210;2023-03-14T03:40:07;10.60;;;1.90;;
17790;SDS011;9019;48.132;-1.210;2023-03-14T03:42:34;17.73;;;1.97;;
17790;SDS011;9019;48.132;-1.210;2023-03-14T03:45:02;13.50;;;1.90;;
17790;SDS011;9019;48.132;-1.210;2023-03-14T03:47:30;10.77;;;1.87;;
17790;SDS011;9019;48.132;-1.210;2023-03-14T03:49:58;10.70;;;1.97;;
17790;SDS011;9019;48.132;-1.210;2023-03-14T03:52:26;9.83;;;2.00;;
17790;SDS011;9019;48.132;-1.210;2023-03-14T03:54:54;10.27;;;2.40;;
17790;SDS011;9019;48.132;-1.210;2023-03-14T03:57:21;15.10;;;2.63;;
17790;SDS011;9019;48.132;-1.210;2023-03-14T03:59:49;10.93;;;1.90;;
17790;SDS011;9019;48.132;-1.210;2023-03-14T04:02:16;11.10;;;2.17;;
17790;SDS011;9019;48.132;-1.210;2023-03-14T04:04:43;10.57;;;2.10;;
17790;SDS011;9019;48.132;-1.210;2023-03-14T04:07:10;9.37;;;2.50;;
17790;SDS011;9019;48.132;-1.210;2023-03-14T04:09:42;12.07;;;2.03;;
17790;SDS011;9019;48.132;-1.210;2023-03-14T04:12:11;9.27;;;1.43;;
17790;SDS011;9019;48.132;-1.210;2023-03-14T04:14:38;8.63;;;1.93;;
17790;SDS011;9019;48.132;-1.210;2023-03-14T04:17:06;9.60;;;1.57;;
17790;SDS011;9019;48.132;-1.210;2023-03-14T04:19:33;8.70;;;1.60;;
17790;SDS011;9019;48.132;-1.210;2023-03-14T04:22:01;8.43;;;1.60;;
17790;SDS011;9019;48.132;-1.210;2023-03-14T04:24:28;13.20;;;1.40;;
17790;SDS011;9019;48.132;-1.210;2023-03-14T04:26:55;11.50;;;1.83;;
17790;SDS011;9019;48.132;-1.210;2023-03-14T04:29:24;7.80;;;1.83;;
17790;SDS011;9019;48.132;-1.210;2023-03-14T04:31:51;6.20;;;1.30;;
17790;SDS011;9019;48.132;-1.210;2023-03-14T04:34:18;7.37;;;1.70;;
17790;SDS011;9019;48.132;-1.210;2023-03-14T04:36:45;8.57;;;1.83;;
17790;SDS011;9019;48.132;-1.210;2023-03-14T04:39:12;11.87;;;2.33;;
17790;SDS011;9019;48.132;-1.210;2023-03-14T04:41:40;10.30;;;1.73;;
17790;SDS011;9019;48.132;-1.210;2023-03-14T04:44:07;10.53;;;1.80;;
17790;SDS011;9019;48.132;-1.210;2023-03-14T04:46:35;9.37;;;1.77;;
17790;SDS011;9019;48.132;-1.210;2023-03-14T04:49:02;7.73;;;1.50;;
17790;SDS011;9019;48.132;-1.210;2023-03-14T04:51:30;9.10;;;1.60;;
17790;SDS011;9019;48.132;-1.210;2023-03-14T04:53:57;9.40;;;1.63;;
17790;SDS011;9019;48.132;-1.210;2023-03-14T04:56:24;10.20;;;1.53;;
17790;SDS011;9019;48.132;-1.210;2023-03-14T04:58:52;10.33;;;1.67;;
17790;SDS011;9019;48.132;-1.210;2023-03-14T05:01:19;7.17;;;1.40;;
17790;SDS011;9019;48.132;-1.210;2023-03-14T05:03:48;6.40;;;1.30;;
17790;SDS011;9019;48.132;-1.210;2023-03-14T05:06:15;9.27;;;1.43;;
17790;SDS011;9019;48.132;-1.210;2023-03-14T05:08:42;11.87;;;1.50;;
17790;SDS011;9019;48.132;-1.210;2023-03-14T05:11:10;7.23;;;1.80;;
17790;SDS011;9019;48.132;-1.210;2023-03-14T05:13:37;8.90;;;1.97;;
17790;SDS011;9019;48.132;-1.210;2023-03-14T05:16:05;6.97;;;1.37;;
17790;SDS011;9019;48.132;-1.210;2023-03-14T05:18:33;5.50;;;1.27;;
17790;SDS011;9019;48.132;-1.210;2023-03-14T05:21:01;9.97;;;1.90;;
17790;SDS011;9019;48.132;-1.210;2023-03-14T05:23:29;10.53;;;1.93;;
17790;SDS011;9019;48.132;-1.210;2023-03-14T05:25:56;7.87;;;1.50;;
17790;SDS011;9019;48.132;-1.210;2023-03-14T05:28:23;12.07;;;1.50;;
17790;SDS011;9019;48.132;-1.210;2023-03-14T05:30:51;8.10;;;1.70;;
17790;SDS011;9019;48.132;-1.210;2023-03-14T05:33:18;7.50;;;1.40;;
17790;SDS011;9019;48.132;-1.210;2023-03-14T05:35:45;9.80;;;1.33;;
17790;SDS011;9019;48.132;-1.210;2023-03-14T05:38:14;6.67;;;1.60;;
17790;SDS011;9019;48.132;-1.210;2023-03-14T05:40:41;11.37;;;1.83;;
17790;SDS011;9019;48.132;-1.210;2023-03-14T05:43:08;9.37;;;1.90;;
17790;SDS011;9019;48.132;-1.210;2023-03-14T05:45:35;11.00;;;1.87;;
17790;SDS011;9019;48.132;-1.210;2023-03-14T05:48:02;11.90;;;2.07;;
17790;SDS011;9019;48.132;-1.210;2023-03-14T05:50:30;9.80;;;1.80;;
17790;SDS011;9019;48.132;-1.210;2023-03-14T05:52:57;12.90;;;2.00;;
17790;SDS011;9019;48.132;-1.210;2023-03-14T05:55:25;12.80;;;1.93;;
17790;SDS011;9019;48.132;-1.210;2023-03-14T05:57:53;12.73;;;1.73;;
17790;SDS011;9019;48.132;-1.210;2023-03-14T06:00:20;13.43;;;2.13;;
17790;SDS011;9019;48.132;-1.210;2023-03-14T06:02:48;13.60;;;2.00;;
17790;SDS011;9019;48.132;-1.210;2023-03-14T06:05:15;16.60;;;2.20;;
17790;SDS011;9019;48.132;-1.210;2023-03-14T06:07:42;9.47;;;1.93;;
17790;SDS011;9019;48.132;-1.210;2023-03-14T06:10:10;13.93;;;2.37;;
17790;SDS011;9019;48.132;-1.210;2023-03-14T06:12:38;9.73;;;1.80;;
17790;SDS011;9019;48.132;-1.210;2023-03-14T06:15:06;15.17;;;2.20;;
17790;SDS011;9019;48.132;-1.210;2023-03-14T06:17:33;15.50;;;1.97;;
17790;SDS011;9019;48.132;-1.210;2023-03-14T06:20:00;14.67;;;2.23;;
17790;SDS011;9019;48.132;-1.210;2023-03-14T06:22:28;19.40;;;2.63;;
17790;SDS011;9019;48.132;-1.210;2023-03-14T06:24:55;11.60;;;2.33;;
17790;SDS011;9019;48.132;-1.210;2023-03-14T06:27:22;14.20;;;2.10;;
17790;SDS011;9019;48.132;-1.210;2023-03-14T06:29:51;14.87;;;1.90;;
17790;SDS011;9019;48.132;-1.210;2023-03-14T06:32:18;14.33;;;1.77;;
17790;SDS011;9019;48.132;-1.210;2023-03-14T06:34:45;17.63;;;2.40;;
17790;SDS011;9019;48.132;-1.210;2023-03-14T06:37:12;13.87;;;2.80;;
17790;SDS011;9019;48.132;-1.210;2023-03-14T06:39:40;15.50;;;2.20;;
17790;SDS011;9019;48.132;-1.210;2023-03-14T06:42:08;13.00;;;2.40;;
17790;SDS011;9019;48.132;-1.210;2023-03-14T06:44:36;14.57;;;2.70;;
17790;SDS011;9019;48.132;-1.210;2023-03-14T06:47:04;13.10;;;2.23;;
17790;SDS011;9019;48.132;-1.210;2023-03-14T06:49:32;11.77;;;2.20;;
17790;SDS011;9019;48.132;-1.210;2023-03-14T06:51:59;12.60;;;2.53;;
17790;SDS011;9019;48.132;-1.210;2023-03-14T06:54:26;12.97;;;2.10;;
17790;SDS011;9019;48.132;-1.210;2023-03-14T06:56:53;11.67;;;2.13;;
17790;SDS011;9019;48.132;-1.210;2023-03-14T06:59:20;12.27;;;2.20;;
17790;SDS011;9019;48.132;-1.210;2023-03-14T07:01:48;15.30;;;2.77;;
17790;SDS011;9019;48.132;-1.210;2023-03-14T07:04:17;13.03;;;2.10;;
17790;SDS011;9019;48.132;-1.210;2023-03-14T07:06:44;12.93;;;2.10;;
17790;SDS011;9019;48.132;-1.210;2023-03-14T07:09:12;12.80;;;2.17;;
17790;SDS011;9019;48.132;-1.210;2023-03-14T07:11:42;9.90;;;1.90;;
17790;SDS011;9019;48.132;-1.210;2023-03-14T07:14:09;13.27;;;2.13;;
17790;SDS011;9019;48.132;-1.210;2023-03-14T07:16:36;9.17;;;2.30;;
17790;SDS011;9019;48.132;-1.210;2023-03-14T07:19:03;12.00;;;2.60;;
17790;SDS011;9019;48.132;-1.210;2023-03-14T07:21:32;14.33;;;2.53;;
17790;SDS011;9019;48.132;-1.210;2023-03-14T07:23:59;12.03;;;2.80;;
17790;SDS011;9019;48.132;-1.210;2023-03-14T07:26:27;10.10;;;2.50;;
17790;SDS011;9019;48.132;-1.210;2023-03-14T07:28:54;13.80;;;2.43;;
17790;SDS011;9019;48.132;-1.210;2023-03-14T07:31:21;14.77;;;2.53;;
17790;SDS011;9019;48.132;-1.210;2023-03-14T07:33:48;10.90;;;1.97;;
17790;SDS011;9019;48.132;-1.210;2023-03-14T07:36:16;11.57;;;2.10;;
17790;SDS011;9019;48.132;-1.210;2023-03-14T07:38:44;10.17;;;2.17;;
17790;SDS011;9019;48.132;-1.210;2023-03-14T07:41:12;10.23;;;2.00;;
17790;SDS011;9019;48.132;-1.210;2023-03-14T07:43:39;9.00;;;2.23;;
17790;SDS011;9019;48.132;-1.210;2023-03-14T07:46:06;10.27;;;1.90;;
17790;SDS011;9019;48.132;-1.210;2023-03-14T07:48:34;10.33;;;2.20;;
17790;SDS011;9019;48.132;-1.210;2023-03-14T07:51:01;12.87;;;2.23;;
17790;SDS011;9019;48.132;-1.210;2023-03-14T07:53:28;11.27;;;1.90;;
17790;SDS011;9019;48.132;-1.210;2023-03-14T07:55:57;13.20;;;2.33;;
17790;SDS011;9019;48.132;-1.210;2023-03-14T07:58:24;10.43;;;2.00;;
17790;SDS011;9019;48.132;-1.210;2023-03-14T08:00:51;9.63;;;1.53;;
17790;SDS011;9019;48.132;-1.210;2023-03-14T08:03:19;10.90;;;2.20;;
17790;SDS011;9019;48.132;-1.210;2023-03-14T08:05:46;7.23;;;1.50;;
17790;SDS011;9019;48.132;-1.210;2023-03-14T08:08:14;10.93;;;1.70;;
17790;SDS011;9019;48.132;-1.210;2023-03-14T08:10:41;7.40;;;1.70;;
17790;SDS011;9019;48.132;-1.210;2023-03-14T08:13:10;7.90;;;1.60;;
17790;SDS011;9019;48.132;-1.210;2023-03-14T08:15:37;5.80;;;1.13;;
17790;SDS011;9019;48.132;-1.210;2023-03-14T08:18:05;10.70;;;1.67;;
17790;SDS011;9019;48.132;-1.210;2023-03-14T08:20:32;8.73;;;1.63;;
17790;SDS011;9019;48.132;-1.210;2023-03-14T08:23:00;8.73;;;2.20;;
17790;SDS011;9019;48.132;-1.210;2023-03-14T08:25:27;6.07;;;1.73;;
17790;SDS011;9019;48.132;-1.210;2023-03-14T08:27:55;8.82;;;1.92;;
17790;SDS011;9019;48.132;-1.210;2023-03-14T08:30:24;9.93;;;2.47;;
17790;SDS011;9019;48.132;-1.210;2023-03-14T08:32:51;8.63;;;2.10;;
17790;SDS011;9019;48.132;-1.210;2023-03-14T08:35:18;11.33;;;2.23;;
17790;SDS011;9019;48.132;-1.210;2023-03-14T08:37:46;7.63;;;2.23;;
17790;SDS011;9019;48.132;-1.210;2023-03-14T08:40:13;8.43;;;1.80;;
17790;SDS011;9019;48.132;-1.210;2023-03-14T08:42:42;6.40;;;1.50;;
17790;SDS011;9019;48.132;-1.210;2023-03-14T08:45:10;9.43;;;1.60;;
17790;SDS011;9019;48.132;-1.210;2023-03-14T08:47:39;7.43;;;1.70;;
17790;SDS011;9019;48.132;-1.210;2023-03-14T08:50:07;4.68;;;1.30;;
17790;SDS011;9019;48.132;-1.210;2023-03-14T08:52:35;7.15;;;1.45;;
17790;SDS011;9019;48.132;-1.210;2023-03-14T08:55:06;9.95;;;1.60;;
17790;SDS011;9019;48.132;-1.210;2023-03-14T08:57:33;7.22;;;1.88;;
17790;SDS011;9019;48.132;-1.210;2023-03-14T09:00:02;7.97;;;1.90;;
17790;SDS011;9019;48.132;-1.210;2023-03-14T09:02:35;6.50;;;1.60;;
17790;SDS011;9019;48.132;-1.210;2023-03-14T09:05:04;4.55;;;1.60;;
17790;SDS011;9019;48.132;-1.210;2023-03-14T09:07:31;4.88;;;1.48;;
17790;SDS011;9019;48.132;-1.210;2023-03-14T09:09:58;6.38;;;1.58;;
17790;SDS011;9019;48.132;-1.210;2023-03-14T09:12:26;9.13;;;1.88;;
17790;SDS011;9019;48.132;-1.210;2023-03-14T09:14:53;6.93;;;1.67;;
17790;SDS011;9019;48.132;-1.210;2023-03-14T09:17:20;6.72;;;1.55;;
17790;SDS011;9019;48.132;-1.210;2023-03-14T09:19:47;8.20;;;1.60;;
17790;SDS011;9019;48.132;-1.210;2023-03-14T09:22:16;6.15;;;1.60;;
17790;SDS011;9019;48.132;-1.210;2023-03-14T09:24:43;8.05;;;1.73;;
17790;SDS011;9019;48.132;-1.210;2023-03-14T09:27:10;4.25;;;1.40;;
17790;SDS011;9019;48.132;-1.210;2023-03-14T09:29:37;6.93;;;1.80;;
17790;SDS011;9019;48.132;-1.210;2023-03-14T09:32:05;8.73;;;2.08;;
17790;SDS011;9019;48.132;-1.210;2023-03-14T09:34:32;6.70;;;1.58;;
17790;SDS011;9019;48.132;-1.210;2023-03-14T09:36:59;6.13;;;1.27;;
17790;SDS011;9019;48.132;-1.210;2023-03-14T09:39:28;8.95;;;1.50;;
17790;SDS011;9019;48.132;-1.210;2023-03-14T09:41:55;6.53;;;1.52;;
17790;SDS011;9019;48.132;-1.210;2023-03-14T09:44:25;7.38;;;1.55;;
17790;SDS011;9019;48.132;-1.210;2023-03-14T09:46:54;8.00;;;1.50;;
17790;SDS011;9019;48.132;-1.210;2023-03-14T09:49:23;6.57;;;1.60;;
17790;SDS011;9019;48.132;-1.210;2023-03-14T09:51:53;5.75;;;1.70;;
17790;SDS011;9019;48.132;-1.210;2023-03-14T09:54:25;8.23;;;1.48;;
17790;SDS011;9019;48.132;-1.210;2023-03-14T09:56:55;6.63;;;1.38;;
17790;SDS011;9019;48.132;-1.210;2023-03-14T09:59:22;7.85;;;1.55;;
17790;SDS011;9019;48.132;-1.210;2023-03-14T10:01:49;6.93;;;1.85;;
17790;SDS011;9019;48.132;-1.210;2023-03-14T10:04:17;6.75;;;1.15;;
17790;SDS011;9019;48.132;-1.210;2023-03-14T10:06:48;7.53;;;1.75;;
17790;SDS011;9019;48.132;-1.210;2023-03-14T10:09:17;7.57;;;1.50;;
17790;SDS011;9019;48.132;-1.210;2023-03-14T10:11:50;6.28;;;1.60;;
17790;SDS011;9019;48.132;-1.210;2023-03-14T10:14:27;6.78;;;1.67;;
17790;SDS011;9019;48.132;-1.210;2023-03-14T10:16:55;7.05;;;1.60;;
17790;SDS011;9019;48.132;-1.210;2023-03-14T10:19:31;7.65;;;1.58;;
17790;SDS011;9019;48.132;-1.210;2023-03-14T10:22:00;8.45;;;1.50;;
17790;SDS011;9019;48.132;-1.210;2023-03-14T10:24:28;9.35;;;1.70;;
17790;SDS011;9019;48.132;-1.210;2023-03-14T10:26:57;7.47;;;1.63;;
17790;SDS011;9019;48.132;-1.210;2023-03-14T10:29:28;8.57;;;1.48;;
17790;SDS011;9019;48.132;-1.210;2023-03-14T10:31:57;7.38;;;1.85;;
17790;SDS011;9019;48.132;-1.210;2023-03-14T10:34:27;5.22;;;1.50;;
17790;SDS011;9019;48.132;-1.210;2023-03-14T10:36:56;6.70;;;1.13;;
17790;SDS011;9019;48.132;-1.210;2023-03-14T10:39:32;5.05;;;1.20;;
17790;SDS011;9019;48.132;-1.210;2023-03-14T10:42:04;5.00;;;1.08;;
17790;SDS011;9019;48.132;-1.210;2023-03-14T10:44:33;8.13;;;1.92;;
17790;SDS011;9019;48.132;-1.210;2023-03-14T10:47:01;6.57;;;1.37;;
17790;SDS011;9019;48.132;-1.210;2023-03-14T10:49:29;7.87;;;1.60;;
17790;SDS011;9019;48.132;-1.210;2023-03-14T10:52:00;6.90;;;1.57;;
17790;SDS011;9019;48.132;-1.210;2023-03-14T10:54:30;8.00;;;1.67;;
17790;SDS011;9019;48.132;-1.210;2023-03-14T10:56:58;6.27;;;1.33;;
17790;SDS011;9019;48.132;-1.210;2023-03-14T10:59:26;6.57;;;1.50;;
17790;SDS011;9019;48.132;-1.210;2023-03-14T11:01:57;7.40;;;1.40;;
17790;SDS011;9019;48.132;-1.210;2023-03-14T11:04:32;8.43;;;1.83;;
17790;SDS011;9019;48.132;-1.210;2023-03-14T11:07:05;6.47;;;1.17;;
17790;SDS011;9019;48.132;-1.210;2023-03-14T11:09:36;8.48;;;1.80;;
17790;SDS011;9019;48.132;-1.210;2023-03-14T11:12:10;7.13;;;1.73;;
17790;SDS011;9019;48.132;-1.210;2023-03-14T11:14:38;7.13;;;1.50;;
17790;SDS011;9019;48.132;-1.210;2023-03-14T11:17:10;4.82;;;1.30;;
17790;SDS011;9019;48.132;-1.210;2023-03-14T11:19:42;7.05;;;1.77;;
17790;SDS011;9019;48.132;-1.210;2023-03-14T11:22:14;5.50;;;1.38;;
17790;SDS011;9019;48.132;-1.210;2023-03-14T11:24:55;7.40;;;1.50;;
17790;SDS011;9019;48.132;-1.210;2023-03-14T11:27:28;6.43;;;1.65;;
17790;SDS011;9019;48.132;-1.210;2023-03-14T11:30:00;6.28;;;1.98;;
17790;SDS011;9019;48.132;-1.210;2023-03-14T11:32:39;7.22;;;1.75;;
17790;SDS011;9019;48.132;-1.210;2023-03-14T11:35:14;8.88;;;1.67;;
17790;SDS011;9019;48.132;-1.210;2023-03-14T11:37:44;6.68;;;1.73;;
17790;SDS011;9019;48.132;-1.210;2023-03-14T11:40:14;5.95;;;1.45;;
17790;SDS011;9019;48.132;-1.210;2023-03-14T11:42:42;5.28;;;1.63;;
17790;SDS011;9019;48.132;-1.210;2023-03-14T11:45:12;5.32;;;1.70;;
17790;SDS011;9019;48.132;-1.210;2023-03-14T11:47:43;6.18;;;1.27;;
17790;SDS011;9019;48.132;-1.210;2023-03-14T11:50:14;8.10;;;1.58;;
17790;SDS011;9019;48.132;-1.210;2023-03-14T11:52:44;6.00;;;1.40;;
17790;SDS011;9019;48.132;-1.210;2023-03-14T11:55:16;4.68;;;1.33;;
17790;SDS011;9019;48.132;-1.210;2023-03-14T11:57:44;9.27;;;1.40;;
17790;SDS011;9019;48.132;-1.210;2023-03-14T12:00:13;6.77;;;2.00;;
17790;SDS011;9019;48.132;-1.210;2023-03-14T12:02:45;8.90;;;1.67;;
17790;SDS011;9019;48.132;-1.210;2023-03-14T12:05:33;8.13;;;1.53;;
17790;SDS011;9019;48.132;-1.210;2023-03-14T12:10:58;5.97;;;1.27;;
17790;SDS011;9019;48.132;-1.210;2023-03-14T12:13:27;7.43;;;1.80;;
17790;SDS011;9019;48.132;-1.210;2023-03-14T12:15:56;6.03;;;1.50;;
17790;SDS011;9019;48.132;-1.210;2023-03-14T12:18:27;5.90;;;1.63;;
17790;SDS011;9019;48.132;-1.210;2023-03-14T12:20:55;6.97;;;1.60;;
17790;SDS011;9019;48.132;-1.210;2023-03-14T12:23:23;9.03;;;1.67;;
17790;SDS011;9019;48.132;-1.210;2023-03-14T12:26:06;8.33;;;1.30;;
17790;SDS011;9019;48.132;-1.210;2023-03-14T12:28:33;6.70;;;1.40;;
17790;SDS011;9019;48.132;-1.210;2023-03-14T12:33:44;7.70;;;1.50;;
17790;SDS011;9019;48.132;-1.210;2023-03-14T12:36:17;8.70;;;1.53;;
17790;SDS011;9019;48.132;-1.210;2023-03-14T12:38:49;6.87;;;1.60;;
17790;SDS011;9019;48.132;-1.210;2023-03-14T12:41:20;8.57;;;1.60;;
17790;SDS011;9019;48.132;-1.210;2023-03-14T12:43:47;7.00;;;1.50;;
17790;SDS011;9019;48.132;-1.210;2023-03-14T12:46:19;6.40;;;1.50;;
17790;SDS011;9019;48.132;-1.210;2023-03-14T12:48:48;7.00;;;1.40;;
17790;SDS011;9019;48.132;-1.210;2023-03-14T12:51:16;8.63;;;1.93;;
17790;SDS011;9019;48.132;-1.210;2023-03-14T12:56:38;7.93;;;1.30;;
17790;SDS011;9019;48.132;-1.210;2023-03-14T13:01:58;9.20;;;1.70;;
17790;SDS011;9019;48.132;-1.210;2023-03-14T13:04:32;10.20;;;1.60;;
17790;SDS011;9019;48.132;-1.210;2023-03-14T13:07:00;7.93;;;1.73;;
17790;SDS011;9019;48.132;-1.210;2023-03-14T13:12:27;9.27;;;1.80;;
17790;SDS011;9019;48.132;-1.210;2023-03-14T13:14:57;8.40;;;1.90;;
17790;SDS011;9019;48.132;-1.210;2023-03-14T13:17:26;11.77;;;1.80;;
17790;SDS011;9019;48.132;-1.210;2023-03-14T13:19:56;8.23;;;1.77;;
17790;SDS011;9019;48.132;-1.210;2023-03-14T13:22:24;6.63;;;1.40;;
17790;SDS011;9019;48.132;-1.210;2023-03-14T13:24:58;7.73;;;1.60;;
17790;SDS011;9019;48.132;-1.210;2023-03-14T13:27:25;6.00;;;1.17;;
17790;SDS011;9019;48.132;-1.210;2023-03-14T13:29:52;5.77;;;1.50;;
17790;SDS011;9019;48.132;-1.210;2023-03-14T13:32:20;5.07;;;1.30;;
17790;SDS011;9019;48.132;-1.210;2023-03-14T13:34:48;9.03;;;1.60;;
17790;SDS011;9019;48.132;-1.210;2023-03-14T13:37:18;8.93;;;1.67;;
17790;SDS011;9019;48.132;-1.210;2023-03-14T13:39:48;8.30;;;1.50;;
17790;SDS011;9019;48.132;-1.210;2023-03-14T13:42:16;6.83;;;1.70;;
17790;SDS011;9019;48.132;-1.210;2023-03-14T13:44:44;10.03;;;2.03;;
17790;SDS011;9019;48.132;-1.210;2023-03-14T13:47:13;5.70;;;1.47;;
17790;SDS011;9019;48.132;-1.210;2023-03-14T13:49:41;8.97;;;1.87;;
17790;SDS011;9019;48.132;-1.210;2023-03-14T13:52:23;6.03;;;1.90;;
17790;SDS011;9019;48.132;-1.210;2023-03-14T13:54:52;8.03;;;1.70;;
17790;SDS011;9019;48.132;-1.210;2023-03-14T13:57:20;16.03;;;2.00;;
17790;SDS011;9019;48.132;-1.210;2023-03-14T13:59:57;16.67;;;2.50;;
17790;SDS011;9019;48.132;-1.210;2023-03-14T14:02:25;11.10;;;2.00;;
17790;SDS011;9019;48.132;-1.210;2023-03-14T14:04:53;10.80;;;1.57;;
17790;SDS011;9019;48.132;-1.210;2023-03-14T14:07:20;10.20;;;2.23;;
17790;SDS011;9019;48.132;-1.210;2023-03-14T14:09:49;11.40;;;1.90;;
17790;SDS011;9019;48.132;-1.210;2023-03-14T14:12:17;11.40;;;2.57;;
17790;SDS011;9019;48.132;-1.210;2023-03-14T14:14:50;8.00;;;2.03;;
17790;SDS011;9019;48.132;-1.210;2023-03-14T14:17:19;11.63;;;2.07;;
17790;SDS011;9019;48.132;-1.210;2023-03-14T14:19:48;13.47;;;2.03;;
17790;SDS011;9019;48.132;-1.210;2023-03-14T14:22:15;10.27;;;1.90;;
17790;SDS011;9019;48.132;-1.210;2023-03-14T14:24:43;5.30;;;1.40;;
17790;SDS011;9019;48.132;-1.210;2023-03-14T14:27:13;10.80;;;1.77;;
17790;SDS011;9019;48.132;-1.210;2023-03-14T14:29:42;7.93;;;1.33;;
17790;SDS011;9019;48.132;-1.210;2023-03-14T14:32:11;5.17;;;1.30;;
17790;SDS011;9019;48.132;-1.210;2023-03-14T14:34:39;6.17;;;1.30;;
17790;SDS011;9019;48.132;-1.210;2023-03-14T14:37:16;4.37;;;1.10;;
17790;SDS011;9019;48.132;-1.210;2023-03-14T14:39:44;5.73;;;1.00;;
17790;SDS011;9019;48.132;-1.210;2023-03-14T14:42:14;6.13;;;1.30;;
17790;SDS011;9019;48.132;-1.210;2023-03-14T14:44:42;5.23;;;1.00;;
17790;SDS011;9019;48.132;-1.210;2023-03-14T14:47:12;4.33;;;0.90;;
17790;SDS011;9019;48.132;-1.210;2023-03-14T14:49:41;4.27;;;0.80;;
17790;SDS011;9019;48.132;-1.210;2023-03-14T14:52:10;3.87;;;1.00;;
17790;SDS011;9019;48.132;-1.210;2023-03-14T14:54:38;6.37;;;1.20;;
17790;SDS011;9019;48.132;-1.210;2023-03-14T14:57:06;2.93;;;0.73;;
17790;SDS011;9019;48.132;-1.210;2023-03-14T14:59:43;5.30;;;1.03;;
17790;SDS011;9019;48.132;-1.210;2023-03-14T15:02:17;6.00;;;0.97;;
17790;SDS011;9019;48.132;-1.210;2023-03-14T15:04:50;4.23;;;1.00;;